sensor_id;sensor_type;location;lat;lon;timestamp;temperature;humidity
4695;DHT22;2361;49.540;8.390;2023-06-05T00:01:25;18.30;60.80
4695;DHT22;2361;49.540;8.390;2023-06-05T00:03:52;18.20;60.90
4695;DHT22;2361;49.540;8.390;2023-06-05T00:06:20;18.20;61.30
4695;DHT22;2361;49.540;8.390;2023-06-05T00:08:47;18.20;61.30
4695;DHT22;2361;49.540;8.390;2023-06-05T00:11:14;18.20;61.30
4695;DHT22;2361;49.540;8.390;2023-06-05T00:13:41;18.10;61.40
4695;DHT22;2361;49.540;8.390;2023-06-05T00:16:08;18.10;61.60
4695;DHT22;2361;49.540;8.390;2023-06-05T00:18:35;18.00;61.80
4695;DHT22;2361;49.540;8.390;2023-06-05T00:21:02;17.90;62.20
4695;DHT22;2361;49.540;8.390;2023-06-05T00:23:30;17.90;62.40
4695;DHT22;2361;49.540;8.390;2023-06-05T00:25:57;17.90;62.60
4695;DHT22;2361;49.540;8.390;2023-06-05T00:28:25;17.80;62.80
4695;DHT22;2361;49.540;8.390;2023-06-05T00:30:52;17.90;62.80
4695;DHT22;2361;49.540;8.390;2023-06-05T00:33:19;17.80;62.70
4695;DHT22;2361;49.540;8.390;2023-06-05T00:35:47;17.70;62.90
4695;DHT22;2361;49.540;8.390;2023-06-05T00:38:13;17.70;62.90
4695;DHT22;2361;49.540;8.390;2023-06-05T00:40:41;17.70;63.00
4695;DHT22;2361;49.540;8.390;2023-06-05T00:43:08;17.60;63.40
4695;DHT22;2361;49.540;8.390;2023-06-05T00:45:35;17.60;63.50
4695;DHT22;2361;49.540;8.390;2023-06-05T00:48:02;17.60;63.80
4695;DHT22;2361;49.540;8.390;2023-06-05T00:50:31;17.50;63.80
4695;DHT22;2361;49.540;8.390;2023-06-05T00:53:01;17.50;63.80
4695;DHT22;2361;49.540;8.390;2023-06-05T00:55:28;17.50;63.80
4695;DHT22;2361;49.540;8.390;2023-06-05T00:57:55;17.40;63.90
4695;DHT22;2361;49.540;8.390;2023-06-05T01:00:23;17.40;64.10
4695;DHT22;2361;49.540;8.390;2023-06-05T01:02:51;17.40;64.00
4695;DHT22;2361;49.540;8.390;2023-06-05T01:05:19;17.40;63.90
4695;DHT22;2361;49.540;8.390;2023-06-05T01:07:47;17.40;63.90
4695;DHT22;2361;49.540;8.390;2023-06-05T01:10:16;17.30;63.90
4695;DHT22;2361;49.540;8.390;2023-06-05T01:15:20;17.30;65.00
4695;DHT22;2361;49.540;8.390;2023-06-05T01:17:57;17.20;64.20
4695;DHT22;2361;49.540;8.390;2023-06-05T01:20:33;17.20;64.10
4695;DHT22;2361;49.540;8.390;2023-06-05T01:23:06;17.20;64.50
4695;DHT22;2361;49.540;8.390;2023-06-05T01:25:34;17.20;64.30
4695;DHT22;2361;49.540;8.390;2023-06-05T01:28:29;17.20;64.30
4695;DHT22;2361;49.540;8.390;2023-06-05T01:31:05;17.10;64.40
4695;DHT22;2361;49.540;8.390;2023-06-05T01:33:46;17.10;64.40
4695;DHT22;2361;49.540;8.390;2023-06-05T01:36:18;17.00;64.70
4695;DHT22;2361;49.540;8.390;2023-06-05T01:38:47;17.00;65.00
4695;DHT22;2361;49.540;8.390;2023-06-05T01:41:16;17.00;64.90
4695;DHT22;2361;49.540;8.390;2023-06-05T01:43:45;16.90;65.00
4695;DHT22;2361;49.540;8.390;2023-06-05T01:46:17;16.90;65.40
4695;DHT22;2361;49.540;8.390;2023-06-05T01:48:45;16.80;65.40
4695;DHT22;2361;49.540;8.390;2023-06-05T01:51:12;16.80;65.60
4695;DHT22;2361;49.540;8.390;2023-06-05T01:53:39;16.80;65.60
4695;DHT22;2361;49.540;8.390;2023-06-05T01:56:07;16.80;65.70
4695;DHT22;2361;49.540;8.390;2023-06-05T01:58:35;16.80;66.00
4695;DHT22;2361;49.540;8.390;2023-06-05T02:01:03;16.70;65.90
4695;DHT22;2361;49.540;8.390;2023-06-05T02:03:32;16.70;66.10
4695;DHT22;2361;49.540;8.390;2023-06-05T02:05:59;16.60;65.80
4695;DHT22;2361;49.540;8.390;2023-06-05T02:08:26;16.60;65.80
4695;DHT22;2361;49.540;8.390;2023-06-05T02:10:54;16.60;65.60
4695;DHT22;2361;49.540;8.390;2023-06-05T02:13:21;16.60;65.30
4695;DHT22;2361;49.540;8.390;2023-06-05T02:15:51;16.60;65.60
4695;DHT22;2361;49.540;8.390;2023-06-05T02:18:22;16.50;66.00
4695;DHT22;2361;49.540;8.390;2023-06-05T02:20:54;16.50;65.20
4695;DHT22;2361;49.540;8.390;2023-06-05T02:23:22;16.60;65.20
4695;DHT22;2361;49.540;8.390;2023-06-05T02:25:50;16.50;65.10
4695;DHT22;2361;49.540;8.390;2023-06-05T02:28:17;16.40;65.30
4695;DHT22;2361;49.540;8.390;2023-06-05T02:30:46;16.40;65.30
4695;DHT22;2361;49.540;8.390;2023-06-05T02:33:14;16.40;65.30
4695;DHT22;2361;49.540;8.390;2023-06-05T02:35:42;16.30;65.20
4695;DHT22;2361;49.540;8.390;2023-06-05T02:38:09;16.30;65.00
4695;DHT22;2361;49.540;8.390;2023-06-05T02:40:39;16.30;65.20
4695;DHT22;2361;49.540;8.390;2023-06-05T02:43:06;16.40;65.00
4695;DHT22;2361;49.540;8.390;2023-06-05T02:45:34;16.30;64.80
4695;DHT22;2361;49.540;8.390;2023-06-05T02:48:01;16.30;65.00
4695;DHT22;2361;49.540;8.390;2023-06-05T02:50:28;16.20;65.80
4695;DHT22;2361;49.540;8.390;2023-06-05T02:52:56;16.20;65.30
4695;DHT22;2361;49.540;8.390;2023-06-05T02:55:24;16.20;65.40
4695;DHT22;2361;49.540;8.390;2023-06-05T02:57:56;16.20;65.40
4695;DHT22;2361;49.540;8.390;2023-06-05T03:00:24;16.20;65.50
4695;DHT22;2361;49.540;8.390;2023-06-05T03:02:52;16.10;65.60
4695;DHT22;2361;49.540;8.390;2023-06-05T03:05:20;16.10;66.00
4695;DHT22;2361;49.540;8.390;2023-06-05T03:07:51;16.10;65.90
4695;DHT22;2361;49.540;8.390;2023-06-05T03:10:20;16.10;66.00
4695;DHT22;2361;49.540;8.390;2023-06-05T03:12:48;16.10;66.00
4695;DHT22;2361;49.540;8.390;2023-06-05T03:15:15;16.10;66.10
4695;DHT22;2361;49.540;8.390;2023-06-05T03:17:44;16.10;66.90
4695;DHT22;2361;49.540;8.390;2023-06-05T03:20:12;16.00;66.80
4695;DHT22;2361;49.540;8.390;2023-06-05T03:22:39;16.00;66.80
4695;DHT22;2361;49.540;8.390;2023-06-05T03:25:07;16.00;66.60
4695;DHT22;2361;49.540;8.390;2023-06-05T03:27:35;16.00;66.50
4695;DHT22;2361;49.540;8.390;2023-06-05T03:30:03;16.00;66.50
4695;DHT22;2361;49.540;8.390;2023-06-05T03:32:31;16.00;66.30
4695;DHT22;2361;49.540;8.390;2023-06-05T03:34:58;15.90;66.30
4695;DHT22;2361;49.540;8.390;2023-06-05T03:37:26;16.00;66.20
4695;DHT22;2361;49.540;8.390;2023-06-05T03:39:53;15.90;66.30
4695;DHT22;2361;49.540;8.390;2023-06-05T03:42:20;16.00;66.40
4695;DHT22;2361;49.540;8.390;2023-06-05T03:44:47;15.90;66.10
4695;DHT22;2361;49.540;8.390;2023-06-05T03:47:14;15.90;66.20
4695;DHT22;2361;49.540;8.390;2023-06-05T03:49:41;16.00;66.30
4695;DHT22;2361;49.540;8.390;2023-06-05T03:52:14;16.00;66.40
4695;DHT22;2361;49.540;8.390;2023-06-05T03:54:41;16.10;66.10
4695;DHT22;2361;49.540;8.390;2023-06-05T03:57:12;16.20;66.20
4695;DHT22;2361;49.540;8.390;2023-06-05T03:59:41;16.20;65.80
4695;DHT22;2361;49.540;8.390;2023-06-05T04:02:10;16.30;65.80
4695;DHT22;2361;49.540;8.390;2023-06-05T04:04:37;16.30;65.80
4695;DHT22;2361;49.540;8.390;2023-06-05T04:07:05;16.40;65.70
4695;DHT22;2361;49.540;8.390;2023-06-05T04:09:32;16.60;65.50
4695;DHT22;2361;49.540;8.390;2023-06-05T04:11:59;16.80;65.10
4695;DHT22;2361;49.540;8.390;2023-06-05T04:14:26;16.90;64.60
4695;DHT22;2361;49.540;8.390;2023-06-05T04:16:53;17.10;64.50
4695;DHT22;2361;49.540;8.390;2023-06-05T04:19:20;17.20;64.20
4695;DHT22;2361;49.540;8.390;2023-06-05T04:21:47;17.30;63.80
4695;DHT22;2361;49.540;8.390;2023-06-05T04:24:14;17.40;63.40
4695;DHT22;2361;49.540;8.390;2023-06-05T04:26:41;17.50;63.20
4695;DHT22;2361;49.540;8.390;2023-06-05T04:29:08;17.60;63.00
4695;DHT22;2361;49.540;8.390;2023-06-05T04:31:46;17.70;63.00
4695;DHT22;2361;49.540;8.390;2023-06-05T04:34:14;17.80;62.70
4695;DHT22;2361;49.540;8.390;2023-06-05T04:36:45;17.90;62.80
4695;DHT22;2361;49.540;8.390;2023-06-05T04:39:16;18.00;63.30
4695;DHT22;2361;49.540;8.390;2023-06-05T04:41:45;18.20;62.40
4695;DHT22;2361;49.540;8.390;2023-06-05T04:44:20;18.30;62.30
4695;DHT22;2361;49.540;8.390;2023-06-05T04:46:47;18.40;61.90
4695;DHT22;2361;49.540;8.390;2023-06-05T04:49:15;18.60;61.80
4695;DHT22;2361;49.540;8.390;2023-06-05T04:51:42;18.60;61.80
4695;DHT22;2361;49.540;8.390;2023-06-05T04:54:10;18.70;61.70
4695;DHT22;2361;49.540;8.390;2023-06-05T04:56:38;18.80;61.60
4695;DHT22;2361;49.540;8.390;2023-06-05T04:59:06;19.00;61.50
4695;DHT22;2361;49.540;8.390;2023-06-05T05:01:33;19.00;61.10
4695;DHT22;2361;49.540;8.390;2023-06-05T05:04:00;19.30;60.90
4695;DHT22;2361;49.540;8.390;2023-06-05T05:06:27;19.40;60.70
4695;DHT22;2361;49.540;8.390;2023-06-05T05:08:54;19.40;60.70
4695;DHT22;2361;49.540;8.390;2023-06-05T05:11:21;19.60;60.80
4695;DHT22;2361;49.540;8.390;2023-06-05T05:13:48;19.80;60.10
4695;DHT22;2361;49.540;8.390;2023-06-05T05:16:15;19.90;59.90
4695;DHT22;2361;49.540;8.390;2023-06-05T05:18:44;20.00;59.80
4695;DHT22;2361;49.540;8.390;2023-06-05T05:21:11;20.20;59.70
4695;DHT22;2361;49.540;8.390;2023-06-05T05:23:38;20.40;59.40
4695;DHT22;2361;49.540;8.390;2023-06-05T05:26:06;20.60;59.30
4695;DHT22;2361;49.540;8.390;2023-06-05T05:28:33;20.80;59.10
4695;DHT22;2361;49.540;8.390;2023-06-05T05:31:00;21.00;58.90
4695;DHT22;2361;49.540;8.390;2023-06-05T05:33:27;21.20;58.70
4695;DHT22;2361;49.540;8.390;2023-06-05T05:35:54;21.30;58.50
4695;DHT22;2361;49.540;8.390;2023-06-05T05:38:21;21.50;58.00
4695;DHT22;2361;49.540;8.390;2023-06-05T05:40:48;21.70;57.80
4695;DHT22;2361;49.540;8.390;2023-06-05T05:43:17;21.90;57.40
4695;DHT22;2361;49.540;8.390;2023-06-05T05:45:44;22.10;57.20
4695;DHT22;2361;49.540;8.390;2023-06-05T05:48:12;22.40;56.70
4695;DHT22;2361;49.540;8.390;2023-06-05T05:50:40;22.60;56.20
4695;DHT22;2361;49.540;8.390;2023-06-05T05:53:07;22.70;55.70
4695;DHT22;2361;49.540;8.390;2023-06-05T05:55:34;22.80;55.90
4695;DHT22;2361;49.540;8.390;2023-06-05T05:58:01;23.00;55.60
4695;DHT22;2361;49.540;8.390;2023-06-05T06:00:28;23.10;55.10
4695;DHT22;2361;49.540;8.390;2023-06-05T06:02:55;23.30;55.10
4695;DHT22;2361;49.540;8.390;2023-06-05T06:05:22;23.40;54.80
4695;DHT22;2361;49.540;8.390;2023-06-05T06:07:49;23.60;54.70
4695;DHT22;2361;49.540;8.390;2023-06-05T06:10:16;23.90;54.20
4695;DHT22;2361;49.540;8.390;2023-06-05T06:12:44;24.10;54.00
4695;DHT22;2361;49.540;8.390;2023-06-05T06:15:12;24.40;53.70
4695;DHT22;2361;49.540;8.390;2023-06-05T06:17:38;24.50;53.90
4695;DHT22;2361;49.540;8.390;2023-06-05T06:20:06;24.70;53.40
4695;DHT22;2361;49.540;8.390;2023-06-05T06:22:36;25.10;53.40
4695;DHT22;2361;49.540;8.390;2023-06-05T06:25:03;25.60;52.50
4695;DHT22;2361;49.540;8.390;2023-06-05T06:27:30;26.00;51.90
4695;DHT22;2361;49.540;8.390;2023-06-05T06:30:01;26.40;51.20
4695;DHT22;2361;49.540;8.390;2023-06-05T06:32:28;26.70;50.90
4695;DHT22;2361;49.540;8.390;2023-06-05T06:34:56;27.10;50.50
4695;DHT22;2361;49.540;8.390;2023-06-05T06:37:24;27.50;50.30
4695;DHT22;2361;49.540;8.390;2023-06-05T06:39:51;27.90;49.60
4695;DHT22;2361;49.540;8.390;2023-06-05T06:42:18;28.30;48.50
4695;DHT22;2361;49.540;8.390;2023-06-05T06:44:45;28.70;48.00
4695;DHT22;2361;49.540;8.390;2023-06-05T06:47:12;29.00;47.50
4695;DHT22;2361;49.540;8.390;2023-06-05T06:49:40;29.30;47.50
4695;DHT22;2361;49.540;8.390;2023-06-05T06:52:07;30.10;46.80
4695;DHT22;2361;49.540;8.390;2023-06-05T06:54:34;30.90;45.00
4695;DHT22;2361;49.540;8.390;2023-06-05T06:57:02;31.00;45.20
4695;DHT22;2361;49.540;8.390;2023-06-05T06:59:29;31.40;44.60
4695;DHT22;2361;49.540;8.390;2023-06-05T07:02:16;31.70;44.60
4695;DHT22;2361;49.540;8.390;2023-06-05T07:04:44;32.30;44.50
4695;DHT22;2361;49.540;8.390;2023-06-05T07:07:16;32.80;43.40
4695;DHT22;2361;49.540;8.390;2023-06-05T07:09:45;33.00;43.50
4695;DHT22;2361;49.540;8.390;2023-06-05T07:12:13;33.30;43.20
4695;DHT22;2361;49.540;8.390;2023-06-05T07:14:41;33.70;42.70
4695;DHT22;2361;49.540;8.390;2023-06-05T07:17:09;34.10;42.50
4695;DHT22;2361;49.540;8.390;2023-06-05T07:19:36;34.40;42.30
4695;DHT22;2361;49.540;8.390;2023-06-05T07:22:04;34.70;41.80
4695;DHT22;2361;49.540;8.390;2023-06-05T07:24:33;35.00;41.50
4695;DHT22;2361;49.540;8.390;2023-06-05T07:27:05;35.30;41.10
4695;DHT22;2361;49.540;8.390;2023-06-05T07:29:32;35.20;40.90
4695;DHT22;2361;49.540;8.390;2023-06-05T07:31:59;35.50;40.90
4695;DHT22;2361;49.540;8.390;2023-06-05T07:34:27;36.20;40.50
4695;DHT22;2361;49.540;8.390;2023-06-05T07:36:54;36.50;40.20
4695;DHT22;2361;49.540;8.390;2023-06-05T07:39:24;36.90;39.90
4695;DHT22;2361;49.540;8.390;2023-06-05T07:41:51;37.20;39.40
4695;DHT22;2361;49.540;8.390;2023-06-05T07:44:21;37.10;39.40
4695;DHT22;2361;49.540;8.390;2023-06-05T07:46:49;37.40;39.60
4695;DHT22;2361;49.540;8.390;2023-06-05T07:49:17;37.90;39.10
4695;DHT22;2361;49.540;8.390;2023-06-05T07:51:45;38.20;39.20
4695;DHT22;2361;49.540;8.390;2023-06-05T07:54:17;38.20;38.80
4695;DHT22;2361;49.540;8.390;2023-06-05T07:56:46;38.30;38.50
4695;DHT22;2361;49.540;8.390;2023-06-05T07:59:16;38.30;38.10
4695;DHT22;2361;49.540;8.390;2023-06-05T08:01:44;38.50;38.10
4695;DHT22;2361;49.540;8.390;2023-06-05T08:04:12;38.70;38.00
4695;DHT22;2361;49.540;8.390;2023-06-05T08:06:39;38.80;38.00
4695;DHT22;2361;49.540;8.390;2023-06-05T08:09:07;39.20;37.30
4695;DHT22;2361;49.540;8.390;2023-06-05T08:11:36;39.30;37.30
4695;DHT22;2361;49.540;8.390;2023-06-05T08:14:05;39.40;37.40
4695;DHT22;2361;49.540;8.390;2023-06-05T08:16:35;39.60;37.40
4695;DHT22;2361;49.540;8.390;2023-06-05T08:19:02;39.70;37.10
4695;DHT22;2361;49.540;8.390;2023-06-05T08:21:29;39.80;36.90
4695;DHT22;2361;49.540;8.390;2023-06-05T08:23:57;40.00;36.80
4695;DHT22;2361;49.540;8.390;2023-06-05T08:26:24;40.20;36.70
4695;DHT22;2361;49.540;8.390;2023-06-05T08:28:52;40.40;36.50
4695;DHT22;2361;49.540;8.390;2023-06-05T08:31:20;40.40;36.80
4695;DHT22;2361;49.540;8.390;2023-06-05T08:33:47;40.60;36.70
4695;DHT22;2361;49.540;8.390;2023-06-05T08:36:15;40.80;36.00
4695;DHT22;2361;49.540;8.390;2023-06-05T08:38:43;40.70;36.00
4695;DHT22;2361;49.540;8.390;2023-06-05T08:41:14;40.60;36.30
4695;DHT22;2361;49.540;8.390;2023-06-05T08:43:43;40.40;36.20
4695;DHT22;2361;49.540;8.390;2023-06-05T08:46:12;40.40;36.20
4695;DHT22;2361;49.540;8.390;2023-06-05T08:48:44;40.70;35.80
4695;DHT22;2361;49.540;8.390;2023-06-05T08:51:14;41.20;36.70
4695;DHT22;2361;49.540;8.390;2023-06-05T08:53:47;41.70;35.40
4695;DHT22;2361;49.540;8.390;2023-06-05T08:56:42;42.00;35.50
4695;DHT22;2361;49.540;8.390;2023-06-05T08:59:10;42.10;35.50
4695;DHT22;2361;49.540;8.390;2023-06-05T09:01:41;41.80;35.20
4695;DHT22;2361;49.540;8.390;2023-06-05T09:04:10;41.60;35.40
4695;DHT22;2361;49.540;8.390;2023-06-05T09:06:37;41.40;35.40
4695;DHT22;2361;49.540;8.390;2023-06-05T09:09:06;41.50;35.50
4695;DHT22;2361;49.540;8.390;2023-06-05T09:11:34;41.70;35.40
4695;DHT22;2361;49.540;8.390;2023-06-05T09:14:01;41.60;35.40
4695;DHT22;2361;49.540;8.390;2023-06-05T09:16:42;41.70;35.20
4695;DHT22;2361;49.540;8.390;2023-06-05T09:19:10;41.90;35.30
4695;DHT22;2361;49.540;8.390;2023-06-05T09:21:38;42.30;35.10
4695;DHT22;2361;49.540;8.390;2023-06-05T09:24:19;42.70;35.00
4695;DHT22;2361;49.540;8.390;2023-06-05T09:26:50;42.20;34.80
4695;DHT22;2361;49.540;8.390;2023-06-05T09:29:24;42.20;35.00
4695;DHT22;2361;49.540;8.390;2023-06-05T09:32:02;42.40;35.70
4695;DHT22;2361;49.540;8.390;2023-06-05T09:37:03;42.60;35.00
4695;DHT22;2361;49.540;8.390;2023-06-05T09:39:35;42.30;35.20
4695;DHT22;2361;49.540;8.390;2023-06-05T09:42:06;42.50;35.20
4695;DHT22;2361;49.540;8.390;2023-06-05T09:44:34;42.70;35.20
4695;DHT22;2361;49.540;8.390;2023-06-05T09:47:07;42.80;35.10
4695;DHT22;2361;49.540;8.390;2023-06-05T09:52:07;42.50;35.30
4695;DHT22;2361;49.540;8.390;2023-06-05T09:54:43;42.30;35.50
4695;DHT22;2361;49.540;8.390;2023-06-05T09:57:12;41.70;35.90
4695;DHT22;2361;49.540;8.390;2023-06-05T09:59:49;41.30;36.00
4695;DHT22;2361;49.540;8.390;2023-06-05T10:02:24;40.80;36.60
4695;DHT22;2361;49.540;8.390;2023-06-05T10:05:01;39.90;36.90
4695;DHT22;2361;49.540;8.390;2023-06-05T10:07:31;39.00;37.40
4695;DHT22;2361;49.540;8.390;2023-06-05T10:09:58;37.90;38.90
4695;DHT22;2361;49.540;8.390;2023-06-05T10:12:26;37.10;38.80
4695;DHT22;2361;49.540;8.390;2023-06-05T10:14:54;36.40;40.50
4695;DHT22;2361;49.540;8.390;2023-06-05T10:17:21;35.70;40.40
4695;DHT22;2361;49.540;8.390;2023-06-05T10:19:50;34.90;40.90
4695;DHT22;2361;49.540;8.390;2023-06-05T10:22:18;34.20;41.30
4695;DHT22;2361;49.540;8.390;2023-06-05T10:24:53;33.50;42.30
4695;DHT22;2361;49.540;8.390;2023-06-05T10:36:14;31.20;44.50
4695;DHT22;2361;49.540;8.390;2023-06-05T10:38:59;30.90;45.10
4695;DHT22;2361;49.540;8.390;2023-06-05T10:41:26;30.50;45.30
4695;DHT22;2361;49.540;8.390;2023-06-05T10:43:54;30.20;45.70
4695;DHT22;2361;49.540;8.390;2023-06-05T10:46:37;29.80;46.50
4695;DHT22;2361;49.540;8.390;2023-06-05T10:57:03;29.20;46.80
4695;DHT22;2361;49.540;8.390;2023-06-05T10:59:35;29.20;46.80
4695;DHT22;2361;49.540;8.390;2023-06-05T11:07:20;29.20;47.70
4695;DHT22;2361;49.540;8.390;2023-06-05T11:15:14;28.60;46.00
4695;DHT22;2361;49.540;8.390;2023-06-05T11:17:46;28.60;46.90
4695;DHT22;2361;49.540;8.390;2023-06-05T11:30:28;28.60;46.60
4695;DHT22;2361;49.540;8.390;2023-06-05T11:33:13;28.40;46.50
4695;DHT22;2361;49.540;8.390;2023-06-05T11:35:46;28.40;46.70
4695;DHT22;2361;49.540;8.390;2023-06-05T11:38:21;28.60;46.00
4695;DHT22;2361;49.540;8.390;2023-06-05T11:40:50;28.70;45.90
4695;DHT22;2361;49.540;8.390;2023-06-05T11:43:17;28.60;45.00
4695;DHT22;2361;49.540;8.390;2023-06-05T11:45:56;28.50;45.70
4695;DHT22;2361;49.540;8.390;2023-06-05T11:48:24;28.20;44.30
4695;DHT22;2361;49.540;8.390;2023-06-05T11:50:59;27.90;44.70
4695;DHT22;2361;49.540;8.390;2023-06-05T11:53:31;27.70;44.70
4695;DHT22;2361;49.540;8.390;2023-06-05T11:55:59;27.60;44.10
4695;DHT22;2361;49.540;8.390;2023-06-05T11:58:38;27.60;43.40
4695;DHT22;2361;49.540;8.390;2023-06-05T12:01:11;27.60;43.30
4695;DHT22;2361;49.540;8.390;2023-06-05T12:03:42;27.70;43.40
4695;DHT22;2361;49.540;8.390;2023-06-05T12:06:09;27.80;43.70
4695;DHT22;2361;49.540;8.390;2023-06-05T12:08:39;27.90;44.10
4695;DHT22;2361;49.540;8.390;2023-06-05T12:11:26;28.00;43.00
4695;DHT22;2361;49.540;8.390;2023-06-05T12:13:57;27.90;42.80
4695;DHT22;2361;49.540;8.390;2023-06-05T12:16:37;27.90;44.50
4695;DHT22;2361;49.540;8.390;2023-06-05T12:19:18;27.80;44.70
4695;DHT22;2361;49.540;8.390;2023-06-05T12:21:46;27.70;44.80
4695;DHT22;2361;49.540;8.390;2023-06-05T12:24:15;27.60;44.80
4695;DHT22;2361;49.540;8.390;2023-06-05T12:26:59;27.50;44.50
4695;DHT22;2361;49.540;8.390;2023-06-05T12:29:37;27.50;45.20
4695;DHT22;2361;49.540;8.390;2023-06-05T12:32:22;27.40;44.30
4695;DHT22;2361;49.540;8.390;2023-06-05T12:34:52;27.40;45.50
4695;DHT22;2361;49.540;8.390;2023-06-05T12:37:29;27.40;44.50
4695;DHT22;2361;49.540;8.390;2023-06-05T12:40:11;27.40;43.90
4695;DHT22;2361;49.540;8.390;2023-06-05T12:42:40;27.40;43.40
4695;DHT22;2361;49.540;8.390;2023-06-05T12:45:11;27.40;43.20
4695;DHT22;2361;49.540;8.390;2023-06-05T12:47:39;27.20;43.40
4695;DHT22;2361;49.540;8.390;2023-06-05T12:50:08;27.30;43.80
4695;DHT22;2361;49.540;8.390;2023-06-05T12:52:40;27.40;43.20
4695;DHT22;2361;49.540;8.390;2023-06-05T12:55:08;27.30;43.10
4695;DHT22;2361;49.540;8.390;2023-06-05T12:57:36;27.30;44.30
4695;DHT22;2361;49.540;8.390;2023-06-05T13:00:04;27.30;45.00
4695;DHT22;2361;49.540;8.390;2023-06-05T13:02:43;27.30;44.90
4695;DHT22;2361;49.540;8.390;2023-06-05T13:05:12;27.20;44.30
4695;DHT22;2361;49.540;8.390;2023-06-05T13:07:40;27.20;44.10
4695;DHT22;2361;49.540;8.390;2023-06-05T13:10:08;27.10;42.90
4695;DHT22;2361;49.540;8.390;2023-06-05T13:12:37;27.20;43.00
4695;DHT22;2361;49.540;8.390;2023-06-05T13:15:05;27.10;42.60
4695;DHT22;2361;49.540;8.390;2023-06-05T13:17:33;27.10;44.30
4695;DHT22;2361;49.540;8.390;2023-06-05T13:20:02;27.20;44.80
4695;DHT22;2361;49.540;8.390;2023-06-05T13:22:43;27.20;45.20
4695;DHT22;2361;49.540;8.390;2023-06-05T13:25:10;27.20;45.40
4695;DHT22;2361;49.540;8.390;2023-06-05T13:27:37;27.20;45.90
4695;DHT22;2361;49.540;8.390;2023-06-05T13:30:04;27.20;45.70
4695;DHT22;2361;49.540;8.390;2023-06-05T13:32:33;27.10;45.00
4695;DHT22;2361;49.540;8.390;2023-06-05T13:35:06;27.10;45.40
4695;DHT22;2361;49.540;8.390;2023-06-05T13:37:34;27.00;45.30
4695;DHT22;2361;49.540;8.390;2023-06-05T13:40:01;26.90;44.90
4695;DHT22;2361;49.540;8.390;2023-06-05T13:42:32;26.90;45.00
4695;DHT22;2361;49.540;8.390;2023-06-05T13:44:59;26.90;45.00
4695;DHT22;2361;49.540;8.390;2023-06-05T13:47:26;26.90;44.50
4695;DHT22;2361;49.540;8.390;2023-06-05T13:49:53;26.90;44.40
4695;DHT22;2361;49.540;8.390;2023-06-05T13:52:21;26.90;44.50
4695;DHT22;2361;49.540;8.390;2023-06-05T13:54:48;26.80;45.00
4695;DHT22;2361;49.540;8.390;2023-06-05T13:57:15;26.80;44.50
4695;DHT22;2361;49.540;8.390;2023-06-05T13:59:44;26.80;44.70
4695;DHT22;2361;49.540;8.390;2023-06-05T14:02:12;26.70;44.20
4695;DHT22;2361;49.540;8.390;2023-06-05T14:04:39;26.60;44.80
4695;DHT22;2361;49.540;8.390;2023-06-05T14:07:06;26.60;45.00
4695;DHT22;2361;49.540;8.390;2023-06-05T14:09:33;26.70;44.80
4695;DHT22;2361;49.540;8.390;2023-06-05T14:12:02;26.70;45.30
4695;DHT22;2361;49.540;8.390;2023-06-05T14:14:29;26.70;45.00
4695;DHT22;2361;49.540;8.390;2023-06-05T14:16:56;26.70;44.80
4695;DHT22;2361;49.540;8.390;2023-06-05T14:19:23;26.70;44.70
4695;DHT22;2361;49.540;8.390;2023-06-05T14:21:51;26.70;44.90
4695;DHT22;2361;49.540;8.390;2023-06-05T14:24:18;26.70;44.60
4695;DHT22;2361;49.540;8.390;2023-06-05T14:26:46;26.70;44.40
4695;DHT22;2361;49.540;8.390;2023-06-05T14:29:13;26.60;43.70
4695;DHT22;2361;49.540;8.390;2023-06-05T14:31:40;26.70;44.60
4695;DHT22;2361;49.540;8.390;2023-06-05T14:34:07;26.70;43.80
4695;DHT22;2361;49.540;8.390;2023-06-05T14:36:36;26.70;43.70
4695;DHT22;2361;49.540;8.390;2023-06-05T14:39:03;26.70;43.30
4695;DHT22;2361;49.540;8.390;2023-06-05T14:41:30;26.70;43.50
4695;DHT22;2361;49.540;8.390;2023-06-05T14:43:57;26.70;43.20
4695;DHT22;2361;49.540;8.390;2023-06-05T14:46:35;26.70;43.00
4695;DHT22;2361;49.540;8.390;2023-06-05T14:49:02;26.70;42.80
4695;DHT22;2361;49.540;8.390;2023-06-05T14:51:29;26.60;43.50
4695;DHT22;2361;49.540;8.390;2023-06-05T14:53:56;26.60;43.60
4695;DHT22;2361;49.540;8.390;2023-06-05T14:56:23;26.50;43.10
4695;DHT22;2361;49.540;8.390;2023-06-05T14:58:50;26.60;42.40
4695;DHT22;2361;49.540;8.390;2023-06-05T15:01:18;26.50;43.30
4695;DHT22;2361;49.540;8.390;2023-06-05T15:03:45;26.50;43.40
4695;DHT22;2361;49.540;8.390;2023-06-05T15:06:13;26.40;45.20
4695;DHT22;2361;49.540;8.390;2023-06-05T15:08:45;26.30;42.90
4695;DHT22;2361;49.540;8.390;2023-06-05T15:11:12;26.30;43.50
4695;DHT22;2361;49.540;8.390;2023-06-05T15:13:39;26.40;42.50
4695;DHT22;2361;49.540;8.390;2023-06-05T15:16:06;26.40;42.20
4695;DHT22;2361;49.540;8.390;2023-06-05T15:18:34;26.40;41.90
4695;DHT22;2361;49.540;8.390;2023-06-05T15:21:01;26.40;41.40
4695;DHT22;2361;49.540;8.390;2023-06-05T15:23:28;26.40;43.20
4695;DHT22;2361;49.540;8.390;2023-06-05T15:25:55;26.30;43.30
4695;DHT22;2361;49.540;8.390;2023-06-05T15:28:22;26.20;42.50
4695;DHT22;2361;49.540;8.390;2023-06-05T15:30:49;26.30;42.90
4695;DHT22;2361;49.540;8.390;2023-06-05T15:33:16;26.30;43.90
4695;DHT22;2361;49.540;8.390;2023-06-05T15:35:43;26.30;42.40
4695;DHT22;2361;49.540;8.390;2023-06-05T15:38:12;26.30;44.00
4695;DHT22;2361;49.540;8.390;2023-06-05T15:40:39;26.20;43.30
4695;DHT22;2361;49.540;8.390;2023-06-05T15:43:08;26.20;43.00
4695;DHT22;2361;49.540;8.390;2023-06-05T15:45:36;26.20;43.00
4695;DHT22;2361;49.540;8.390;2023-06-05T15:48:03;26.10;42.30
4695;DHT22;2361;49.540;8.390;2023-06-05T15:50:31;26.10;42.90
4695;DHT22;2361;49.540;8.390;2023-06-05T15:52:58;26.10;42.80
4695;DHT22;2361;49.540;8.390;2023-06-05T15:55:25;26.00;43.70
4695;DHT22;2361;49.540;8.390;2023-06-05T15:57:53;26.00;42.60
4695;DHT22;2361;49.540;8.390;2023-06-05T16:00:20;26.00;44.00
4695;DHT22;2361;49.540;8.390;2023-06-05T16:02:50;25.80;44.10
4695;DHT22;2361;49.540;8.390;2023-06-05T16:05:19;25.70;43.40
4695;DHT22;2361;49.540;8.390;2023-06-05T16:07:47;25.90;43.00
4695;DHT22;2361;49.540;8.390;2023-06-05T16:10:14;26.00;44.40
4695;DHT22;2361;49.540;8.390;2023-06-05T16:12:42;25.80;44.60
4695;DHT22;2361;49.540;8.390;2023-06-05T16:15:09;25.70;45.00
4695;DHT22;2361;49.540;8.390;2023-06-05T16:17:38;25.70;44.30
4695;DHT22;2361;49.540;8.390;2023-06-05T16:20:07;25.80;44.30
4695;DHT22;2361;49.540;8.390;2023-06-05T16:22:35;25.80;44.90
4695;DHT22;2361;49.540;8.390;2023-06-05T16:25:03;25.80;44.80
4695;DHT22;2361;49.540;8.390;2023-06-05T16:27:30;25.90;44.90
4695;DHT22;2361;49.540;8.390;2023-06-05T16:29:57;26.00;44.80
4695;DHT22;2361;49.540;8.390;2023-06-05T16:32:24;26.00;45.30
4695;DHT22;2361;49.540;8.390;2023-06-05T16:34:52;25.90;45.30
4695;DHT22;2361;49.540;8.390;2023-06-05T16:37:20;25.80;45.80
4695;DHT22;2361;49.540;8.390;2023-06-05T16:39:47;25.80;45.60
4695;DHT22;2361;49.540;8.390;2023-06-05T16:42:16;25.70;45.70
4695;DHT22;2361;49.540;8.390;2023-06-05T16:44:43;25.70;46.00
4695;DHT22;2361;49.540;8.390;2023-06-05T16:47:10;25.70;46.30
4695;DHT22;2361;49.540;8.390;2023-06-05T16:49:37;25.80;46.60
4695;DHT22;2361;49.540;8.390;2023-06-05T16:52:04;25.80;47.20
4695;DHT22;2361;49.540;8.390;2023-06-05T16:54:31;25.80;46.80
4695;DHT22;2361;49.540;8.390;2023-06-05T16:56:58;25.80;46.70
4695;DHT22;2361;49.540;8.390;2023-06-05T16:59:25;25.70;46.30